Observation data for Turkey on 06/27/2019      Previous  Date  Next       Current Mesonet Observations  Soil Data  Daily Summary Page  Observations in Plain Language
KTUR 270500Z 14009KT 25/18 A3013 RMK A01 T02460175  RH  067%=      5-min Rain = 0
KTUR 270505Z 14009KT 25/18 A3013 RMK A01 T02450175  RH  067%=      5-min Rain = 0
KTUR 270510Z 13009KT 25/18 A3013 RMK A01 T02450175  RH  067%=      5-min Rain = 0
KTUR 270515Z 13009KT 24/18 A3013 RMK A01 T02430175  RH  067%=      5-min Rain = 0
KTUR 270520Z 13009KT 24/18 A3013 RMK A01 T02430175  RH  068%=      5-min Rain = 0
KTUR 270525Z 13009KT 24/18 A3013 RMK A01 T02420175  RH  068%=      5-min Rain = 0
KTUR 270530Z 13010KT 24/18 A3013 RMK A01 T02410175  RH  068%=      5-min Rain = 0
KTUR 270535Z 13010KT 24/18 A3013 RMK A01 T02400176  RH  069%=      5-min Rain = 0
KTUR 270540Z 14010KT 24/18 A3013 RMK A01 T02390176  RH  069%=      5-min Rain = 0
KTUR 270545Z 14010KT 24/18 A3013 RMK A01 T02380176  RH  070%=      5-min Rain = 0
KTUR 270550Z 14011KT 24/18 A3013 RMK A01 T02370177  RH  070%=      5-min Rain = 0
KTUR 270555Z 14011KT 24/18 A3013 RMK A01 T02360177  RH  071%=      5-min Rain = 0
KTUR 270600Z 15010KT 24/18 A3013 RMK A01 T02350177  RH  072%=      5-min Rain = 0
KTUR 270605Z 15009KT 23/18 A3013 RMK A01 T02340177  RH  072%=      5-min Rain = 0
KTUR 270610Z 15010KT 23/18 A3013 RMK A01 T02340177  RH  072%=      5-min Rain = 0
KTUR 270615Z 15010KT 23/18 A3013 RMK A01 T02330177  RH  073%=      5-min Rain = 0
KTUR 270620Z 15010KT 23/18 A3012 RMK A01 T02320177  RH  073%=      5-min Rain = 0
KTUR 270625Z 15010KT 23/18 A3012 RMK A01 T02310177  RH  073%=      5-min Rain = 0
KTUR 270630Z 15010KT 23/18 A3012 RMK A01 T02310178  RH  074%=      5-min Rain = 0
KTUR 270635Z 15011KT 23/18 A3012 RMK A01 T02310178  RH  074%=      5-min Rain = 0
KTUR 270640Z 15010KT 23/18 A3012 RMK A01 T02310178  RH  074%=      5-min Rain = 0
KTUR 270645Z 15011KT 23/18 A3012 RMK A01 T02310178  RH  074%=      5-min Rain = 0
KTUR 270650Z 15010KT 23/18 A3011 RMK A01 T02310178  RH  074%=      5-min Rain = 0
KTUR 270655Z 15010KT 23/18 A3011 RMK A01 T02310178  RH  074%=      5-min Rain = 0
KTUR 270700Z 15010KT 23/18 A3011 RMK A01 T02310178  RH  074%=      5-min Rain = 0
KTUR 270705Z 15010KT 23/18 A3011 RMK A01 T02310179  RH  074%=      5-min Rain = 0
KTUR 270710Z 16010KT 23/18 A3011 RMK A01 T02300179  RH  075%=      5-min Rain = 0
KTUR 270715Z 16010KT 23/18 A3011 RMK A01 T02310179  RH  075%=      5-min Rain = 0
KTUR 270720Z 15009KT 23/18 A3011 RMK A01 T02300179  RH  075%=      5-min Rain = 0
KTUR 270725Z 16009KT 23/18 A3011 RMK A01 T02300179  RH  075%=      5-min Rain = 0
KTUR 270730Z 16009KT 23/18 A3011 RMK A01 T02310179  RH  075%=      5-min Rain = 0
KTUR 270735Z 16008KT 23/18 A3011 RMK A01 T02310179  RH  075%=      5-min Rain = 0
KTUR 270740Z 16009KT 23/18 A3011 RMK A01 T02310179  RH  075%=      5-min Rain = 0
KTUR 270745Z 16009KT 23/18 A3011 RMK A01 T02310179  RH  074%=      5-min Rain = 0
KTUR 270750Z 16008KT 23/18 A3011 RMK A01 T02320179  RH  074%=      5-min Rain = 0
KTUR 270755Z 16008KT 23/18 A3011 RMK A01 T02330179  RH  074%=      5-min Rain = 0
KTUR 270800Z 15009KT 23/18 A3011 RMK A01 T02330178  RH  073%=      5-min Rain = 0
KTUR 270805Z 15009KT 23/18 A3011 RMK A01 T02340178  RH  073%=      5-min Rain = 0
KTUR 270810Z 13008KT 23/18 A3011 RMK A01 T02300178  RH  074%=      5-min Rain = 0
KTUR 270815Z 12006KT 23/18 A3011 RMK A01 T02270177  RH  075%=      5-min Rain = 0
KTUR 270820Z 13004KT 22/18 A3011 RMK A01 T02240176  RH  076%=      5-min Rain = 0
KTUR 270825Z 15004KT 22/18 A3012 RMK A01 T02240176  RH  076%=      5-min Rain = 0
KTUR 270830Z 17004KT 22/18 A3012 RMK A01 T02240176  RH  076%=      5-min Rain = 0
KTUR 270835Z 18005KT 22/18 A3012 RMK A01 T02230176  RH  077%=      5-min Rain = 0
KTUR 270840Z 19005KT 22/18 A3013 RMK A01 T02210176  RH  078%=      5-min Rain = 0
KTUR 270845Z 21005KT 22/18 A3013 RMK A01 T02190176  RH  078%=      5-min Rain = 0
KTUR 270850Z 23005KT 22/18 A3014 RMK A01 T02190176  RH  079%=      5-min Rain = 0
KTUR 270855Z 22005KT 22/18 A3014 RMK A01 T02220177  RH  078%=      5-min Rain = 0
KTUR 270900Z 19005KT 23/18 A3013 RMK A01 T02250178  RH  077%=      5-min Rain = 0
KTUR 270905Z 17006KT 23/18 A3013 RMK A01 T02260178  RH  076%=      5-min Rain = 0
KTUR 270910Z 17005KT 23/18 A3013 RMK A01 T02250177  RH  077%=      5-min Rain = 0
KTUR 270915Z 16005KT 22/18 A3013 RMK A01 T02230177  RH  077%=      5-min Rain = 0
KTUR 270920Z 16005KT 22/18 A3013 RMK A01 T02230177  RH  077%=      5-min Rain = 0
KTUR 270925Z 16005KT 22/18 A3013 RMK A01 T02230177  RH  077%=      5-min Rain = 0
KTUR 270930Z 16005KT 22/18 A3013 RMK A01 T02240177  RH  077%=      5-min Rain = 0
KTUR 270935Z 16005KT 22/18 A3013 RMK A01 T02240177  RH  077%=      5-min Rain = 0
KTUR 270940Z 16004KT 22/18 A3013 RMK A01 T02230177  RH  077%=      5-min Rain = 0
KTUR 270945Z 16005KT 22/18 A3013 RMK A01 T02240177  RH  077%=      5-min Rain = 0
KTUR 270950Z 16005KT 22/18 A3013 RMK A01 T02220177  RH  077%=      5-min Rain = 0
KTUR 270955Z 16007KT 23/18 A3013 RMK A01 T02260177  RH  076%=      5-min Rain = 0
KTUR 271000Z 15006KT 23/18 A3013 RMK A01 T02270177  RH  075%=      5-min Rain = 0
KTUR 271005Z 16007KT 22/18 A3013 RMK A01 T02240177  RH  077%=      5-min Rain = 0
KTUR 271010Z 16007KT 22/18 A3013 RMK A01 T02240176  RH  076%=      5-min Rain = 0
KTUR 271015Z 16008KT 22/18 A3013 RMK A01 T02240177  RH  076%=      5-min Rain = 0
KTUR 271020Z 16007KT 22/18 A3013 RMK A01 T02240176  RH  077%=      5-min Rain = 0
KTUR 271025Z 15007KT 22/18 A3013 RMK A01 T02220176  RH  077%=      5-min Rain = 0
KTUR 271030Z 15008KT 22/18 A3013 RMK A01 T02200176  RH  078%=      5-min Rain = 0
KTUR 271035Z 15008KT 22/18 A3013 RMK A01 T02180176  RH  079%=      5-min Rain = 0
KTUR 271040Z 14010KT 22/18 A3012 RMK A01 T02180176  RH  079%=      5-min Rain = 0
KTUR 271045Z 14009KT 22/18 A3012 RMK A01 T02180175  RH  079%=      5-min Rain = 0
KTUR 271050Z 14007KT 21/18 A3012 RMK A01 T02140175  RH  080%=      5-min Rain = 0
KTUR 271055Z 16007KT 21/18 A3012 RMK A01 T02130175  RH  081%=      5-min Rain = 0
KTUR 271100Z 15009KT 21/18 A3012 RMK A01 T02130175  RH  081%=      5-min Rain = 0
KTUR 271105Z 15008KT 21/18 A3012 RMK A01 T02130176  RH  081%=      5-min Rain = 0
KTUR 271110Z 15008KT 21/18 A3012 RMK A01 T02130176  RH  081%=      5-min Rain = 0
KTUR 271115Z 15008KT 21/18 A3012 RMK A01 T02120175  RH  081%=      5-min Rain = 0
KTUR 271120Z 16006KT 21/18 A3012 RMK A01 T02110175  RH  082%=      5-min Rain = 0
KTUR 271125Z 16007KT 21/18 A3012 RMK A01 T02100175  RH  083%=      5-min Rain = 0
KTUR 271130Z 16006KT 21/18 A3012 RMK A01 T02080175  RH  084%=      5-min Rain = 0
KTUR 271135Z 16006KT 21/18 A3012 RMK A01 T02070175  RH  084%=      5-min Rain = 0
KTUR 271140Z 16007KT 21/18 A3012 RMK A01 T02070175  RH  084%=      5-min Rain = 0
KTUR 271145Z 15009KT 21/18 A3012 RMK A01 T02070175  RH  084%=      5-min Rain = 0
KTUR 271150Z 15009KT 21/18 A3012 RMK A01 T02080175  RH  083%=      5-min Rain = 0
KTUR 271155Z 16009KT 21/18 A3012 RMK A01 T02090176  RH  083%=      5-min Rain = 0
KTUR 271200Z 16009KT 21/18 A3012 RMK A01 T02100176  RH  083%=      5-min Rain = 0
KTUR 271205Z 16009KT 21/18 A3013 RMK A01 T02120177  RH  083%=      5-min Rain = 0
KTUR 271210Z 16010KT 21/18 A3012 RMK A01 T02130177  RH  082%=      5-min Rain = 0
KTUR 271215Z 16010KT 22/18 A3012 RMK A01 T02150178  RH  082%=      5-min Rain = 0
KTUR 271220Z 16009KT 22/18 A3012 RMK A01 T02160179  RH  081%=      5-min Rain = 0
KTUR 271225Z 16008KT 22/18 A3012 RMK A01 T02160179  RH  081%=      5-min Rain = 0
KTUR 271230Z 16008KT 22/18 A3013 RMK A01 T02170180  RH  081%=      5-min Rain = 0
KTUR 271235Z 15008KT 22/18 A3013 RMK A01 T02180180  RH  081%=      5-min Rain = 0
KTUR 271240Z 16008KT 22/18 A3013 RMK A01 T02190180  RH  081%=      5-min Rain = 0
KTUR 271245Z 16009KT 22/18 A3013 RMK A01 T02220181  RH  080%=      5-min Rain = 0
KTUR 271250Z 16007KT 22/18 A3013 RMK A01 T02240182  RH  079%=      5-min Rain = 0
KTUR 271255Z 16006KT 23/18 A3014 RMK A01 T02250182  RH  079%=      5-min Rain = 0
KTUR 271300Z 17007KT 23/18 A3014 RMK A01 T02270183  RH  078%=      5-min Rain = 0
KTUR 271305Z 16007KT 23/18 A3014 RMK A01 T02290184  RH  078%=      5-min Rain = 0
KTUR 271310Z 16006KT 23/19 A3014 RMK A01 T02320185  RH  077%=      5-min Rain = 0
KTUR 271315Z 16006KT 24/19 A3014 RMK A01 T02370185  RH  075%=      5-min Rain = 0
KTUR 271320Z 17006KT 24/19 A3015 RMK A01 T02390186  RH  074%=      5-min Rain = 0
KTUR 271325Z 17008KT 24/19 A3015 RMK A01 T02430187  RH  073%=      5-min Rain = 0
KTUR 271330Z 18010KT 25/19 A3015 RMK A01 T02480187  RH  071%=      5-min Rain = 0
KTUR 271335Z 18011KT 25/19 A3015 RMK A01 T02490187  RH  070%=      5-min Rain = 0
KTUR 271340Z 18010KT 25/19 A3015 RMK A01 T02500188  RH  070%=      5-min Rain = 0
KTUR 271345Z 19011KT 25/19 A3015 RMK A01 T02520188  RH  069%=      5-min Rain = 0
KTUR 271350Z 18014KT 26/19 A3015 RMK A01 T02550186  RH  067%=      5-min Rain = 0
KTUR 271355Z 18013KT 26/19 A3015 RMK A01 T02570186  RH  066%=      5-min Rain = 0
KTUR 271400Z 20012KT 26/19 A3015 RMK A01 T02600187  RH  066%=      5-min Rain = 0
KTUR 271405Z 20012KT 26/19 A3016 RMK A01 T02610186  RH  065%=      5-min Rain = 0
KTUR 271410Z 20012KT 27/19 A3016 RMK A01 T02650187  RH  064%=      5-min Rain = 0
KTUR 271415Z 19011KT 27/19 A3016 RMK A01 T02650187  RH  064%=      5-min Rain = 0
KTUR 271420Z 19013KT 27/19 A3016 RMK A01 T02670186  RH  063%=      5-min Rain = 0
KTUR 271425Z 19014KT 27/19 A3016 RMK A01 T02680185  RH  062%=      5-min Rain = 0
KTUR 271430Z 19014G19KT 27/19 A3016 RMK A01 T02690185  RH  061%=      5-min Rain = 0
KTUR 271435Z 19014KT 27/18 A3016 RMK A01 T02690184  RH  061%=      5-min Rain = 0
KTUR 271440Z 19014KT 27/18 A3016 RMK A01 T02680184  RH  061%=      5-min Rain = 0
KTUR 271445Z 19013KT 27/18 A3016 RMK A01 T02680184  RH  062%=      5-min Rain = 0
KTUR 271450Z 19013KT 27/18 A3016 RMK A01 T02680183  RH  061%=      5-min Rain = 0
KTUR 271455Z 18012KT 27/19 A3017 RMK A01 T02730185  RH  060%=      5-min Rain = 0
KTUR 271500Z 19014KT 28/19 A3017 RMK A01 T02780186  RH  059%=      5-min Rain = 0
KTUR 271505Z 19014KT 28/19 A3016 RMK A01 T02800186  RH  058%=      5-min Rain = 0
KTUR 271510Z 19014KT 28/19 A3016 RMK A01 T02830186  RH  057%=      5-min Rain = 0
KTUR 271515Z 19013KT 29/19 A3016 RMK A01 T02870187  RH  056%=      5-min Rain = 0
KTUR 271520Z 20012G18KT 29/19 A3017 RMK A01 T02870187  RH  056%=      5-min Rain = 0
KTUR 271525Z 19012KT 29/19 A3017 RMK A01 T02870185  RH  055%=      5-min Rain = 0
KTUR 271530Z 19013KT 29/18 A3017 RMK A01 T02890184  RH  055%=      5-min Rain = 0
KTUR 271535Z 19013KT 29/18 A3017 RMK A01 T02860183  RH  055%=      5-min Rain = 0
KTUR 271540Z 20013KT 29/18 A3016 RMK A01 T02890184  RH  054%=      5-min Rain = 0
KTUR 271545Z 19012G17KT 29/18 A3016 RMK A01 T02890184  RH  055%=      5-min Rain = 0
KTUR 271550Z 20012KT 29/19 A3016 RMK A01 T02940187  RH  054%=      5-min Rain = 0
KTUR 271555Z 19011G16KT 30/19 A3017 RMK A01 T02950186  RH  053%=      5-min Rain = 0
KTUR 271600Z 20013KT 29/18 A3017 RMK A01 T02930184  RH  053%=      5-min Rain = 0
KTUR 271605Z 19010G17KT 30/19 A3017 RMK A01 T02970185  RH  052%=      5-min Rain = 0
KTUR 271610Z 18012KT 29/18 A3017 RMK A01 T02930182  RH  053%=      5-min Rain = 0
KTUR 271615Z 18010G16KT 29/18 A3017 RMK A01 T02920183  RH  053%=      5-min Rain = 0
KTUR 271620Z 19011G16KT 30/18 A3017 RMK A01 T02960184  RH  052%=      5-min Rain = 0
KTUR 271625Z 19010KT 30/18 A3017 RMK A01 T02980184  RH  052%=      5-min Rain = 0
KTUR 271630Z 19012KT 30/18 A3017 RMK A01 T03030183  RH  050%=      5-min Rain = 0
KTUR 271635Z 19009G15KT 30/18 A3017 RMK A01 T03010184  RH  051%=      5-min Rain = 0
KTUR 271640Z 18011G16KT 31/18 A3017 RMK A01 T03060177  RH  047%=      5-min Rain = 0
KTUR 271645Z 20012G17KT 30/18 A3017 RMK A01 T03040179  RH  048%=      5-min Rain = 0
KTUR 271650Z 20009G15KT 30/18 A3017 RMK A01 T03030178  RH  048%=      5-min Rain = 0
KTUR 271655Z 19012KT 31/18 A3017 RMK A01 T03050175  RH  047%=      5-min Rain = 0
KTUR 271700Z 18010KT 30/18 A3017 RMK A01 T03040177  RH  048%=      5-min Rain = 0
KTUR 271705Z 19011G18KT 31/18 A3017 RMK A01 T03070178  RH  047%=      5-min Rain = 0
KTUR 271710Z 18010G16KT 31/18 A3016 RMK A01 T03080175  RH  046%=      5-min Rain = 0
KTUR 271715Z 17009KT 31/17 A3016 RMK A01 T03120172  RH  044%=      5-min Rain = 0
KTUR 271720Z 16012G17KT 32/17 A3016 RMK A01 T03170168  RH  042%=      5-min Rain = 0
KTUR 271725Z 18012G17KT 32/17 A3016 RMK A01 T03150167  RH  042%=      5-min Rain = 0
KTUR 271730Z 18010G18KT 32/17 A3016 RMK A01 T03150169  RH  043%=      5-min Rain = 0
KTUR 271735Z 16015G20KT 32/17 A3016 RMK A01 T03170166  RH  041%=      5-min Rain = 0
KTUR 271740Z 18010G15KT 31/17 A3016 RMK A01 T03130165  RH  042%=      5-min Rain = 0
KTUR 271745Z 15012G18KT 31/17 A3016 RMK A01 T03140166  RH  042%=      5-min Rain = 0
KTUR 271750Z 16013G18KT 32/17 A3016 RMK A01 T03200167  RH  041%=      5-min Rain = 0
KTUR 271755Z 18011KT 32/17 A3016 RMK A01 T03200168  RH  041%=      5-min Rain = 0
KTUR 271800Z 15012KT 32/17 A3016 RMK A01 T03200166  RH  041%=      5-min Rain = 0
KTUR 271805Z 16013KT 32/17 A3016 RMK A01 T03240166  RH  040%=      5-min Rain = 0
KTUR 271810Z 17012G19KT 32/17 A3015 RMK A01 T03210166  RH  040%=      5-min Rain = 0
KTUR 271815Z 17010G15KT 32/17 A3016 RMK A01 T03200166  RH  041%=      5-min Rain = 0
KTUR 271820Z 16013KT 32/16 A3015 RMK A01 T03230164  RH  039%=      5-min Rain = 0
KTUR 271825Z 16013G18KT 32/17 A3015 RMK A01 T03240172  RH  041%=      5-min Rain = 0
KTUR 271830Z 18011G22KT 32/18 A3015 RMK A01 T03210175  RH  043%=      5-min Rain = 0
KTUR 271835Z 18015G20KT 32/17 A3015 RMK A01 T03240172  RH  041%=      5-min Rain = 0
KTUR 271840Z 17012G20KT 33/18 A3015 RMK A01 T03250176  RH  042%=      5-min Rain = 0
KTUR 271845Z 17015G20KT 32/17 A3014 RMK A01 T03240173  RH  042%=      5-min Rain = 0
KTUR 271850Z 17013G19KT 33/17 A3014 RMK A01 T03250172  RH  041%=      5-min Rain = 0
KTUR 271855Z 17012G17KT 32/17 A3014 RMK A01 T03230173  RH  042%=      5-min Rain = 0
KTUR 271900Z 16014G20KT 33/17 A3014 RMK A01 T03290170  RH  040%=      5-min Rain = 0
KTUR 271905Z 18012KT 33/17 A3014 RMK A01 T03270168  RH  039%=      5-min Rain = 0
KTUR 271910Z 17012G17KT 33/17 A3014 RMK A01 T03280169  RH  040%=      5-min Rain = 0
KTUR 271915Z 18012G23KT 33/17 A3013 RMK A01 T03270172  RH  040%=      5-min Rain = 0
KTUR 271920Z 18013G19KT 33/18 A3013 RMK A01 T03290175  RH  041%=      5-min Rain = 0
KTUR 271925Z 17015G20KT 33/17 A3013 RMK A01 T03310173  RH  040%=      5-min Rain = 0
KTUR 271930Z 17013KT 33/17 A3013 RMK A01 T03280171  RH  040%=      5-min Rain = 0
KTUR 271935Z 18012KT 33/17 A3013 RMK A01 T03280171  RH  040%=      5-min Rain = 0
KTUR 271940Z 17013G22KT 33/17 A3012 RMK A01 T03320171  RH  039%=      5-min Rain = 0
KTUR 271945Z 16014G21KT 34/17 A3012 RMK A01 T03350170  RH  038%=      5-min Rain = 0
KTUR 271950Z 16012G18KT 33/17 A3012 RMK A01 T03310167  RH  038%=      5-min Rain = 0
KTUR 271955Z 14015G21KT 34/17 A3012 RMK A01 T03370166  RH  037%=      5-min Rain = 0
KTUR 272000Z 18015G20KT 34/17 A3012 RMK A01 T03350167  RH  038%=      5-min Rain = 0
KTUR 272005Z 16014G20KT 34/17 A3012 RMK A01 T03350166  RH  037%=      5-min Rain = 0
KTUR 272010Z 17013G19KT 34/17 A3012 RMK A01 T03380166  RH  037%=      5-min Rain = 0
KTUR 272015Z 17014G21KT 34/17 A3011 RMK A01 T03360167  RH  037%=      5-min Rain = 0
KTUR 272020Z 16012G17KT 33/17 A3011 RMK A01 T03340166  RH  038%=      5-min Rain = 0
KTUR 272025Z 16015G21KT 34/17 A3011 RMK A01 T03380170  RH  038%=      5-min Rain = 0
KTUR 272030Z 16013G24KT 34/17 A3011 RMK A01 T03380168  RH  037%=      5-min Rain = 0
KTUR 272035Z 17012G17KT 34/17 A3011 RMK A01 T03370173  RH  039%=      5-min Rain = 0
KTUR 272040Z 14015G22KT 34/17 A3011 RMK A01 T03360173  RH  039%=      5-min Rain = 0
KTUR 272045Z 16017G25KT 34/17 A3011 RMK A01 T03360171  RH  038%=      5-min Rain = 0
KTUR 272050Z 16013G18KT 33/17 A3011 RMK A01 T03340167  RH  038%=      5-min Rain = 0
KTUR 272055Z 15015G20KT 34/17 A3011 RMK A01 T03380169  RH  037%=      5-min Rain = 0
KTUR 272100Z 15014G20KT 34/17 A301 RMK A01 T03400167  RH  037%=      5-min Rain = 0
KTUR 272105Z 14016G24KT 34/17 A301 RMK A01 T03410166  RH  036%=      5-min Rain = 0
KTUR 272110Z 15015G23KT 34/17 A301 RMK A01 T03380165  RH  037%=      5-min Rain = 0
KTUR 272115Z 15014G19KT 34/17 A301 RMK A01 T03390167  RH  037%=      5-min Rain = 0
KTUR 272120Z 15014G21KT 34/17 A301 RMK A01 T03380166  RH  037%=      5-min Rain = 0
KTUR 272125Z 16013G20KT 34/17 A301 RMK A01 T03370165  RH  037%=      5-min Rain = 0
KTUR 272130Z 15014G22KT 34/17 A3009 RMK A01 T03430170  RH  037%=      5-min Rain = 0
KTUR 272135Z 16016G29KT 34/17 A3009 RMK A01 T03380166  RH  037%=      5-min Rain = 0
KTUR 272140Z 17012G17KT 34/16 A3009 RMK A01 T03360162  RH  036%=      5-min Rain = 0
KTUR 272145Z 16013G18KT 34/17 A3009 RMK A01 T03370168  RH  037%=      5-min Rain = 0
KTUR 272150Z 16014G19KT 34/17 A3008 RMK A01 T03410166  RH  036%=      5-min Rain = 0
KTUR 272155Z 16013KT 34/17 A3008 RMK A01 T03400170  RH  037%=      5-min Rain = 0
KTUR 272200Z 16012G21KT 34/17 A3008 RMK A01 T03380171  RH  038%=      5-min Rain = 0
KTUR 272205Z 16014G21KT 33/17 A3008 RMK A01 T03340170  RH  039%=      5-min Rain = 0
KTUR 272210Z 13014G21KT 34/17 A3008 RMK A01 T03370173  RH  039%=      5-min Rain = 0
KTUR 272215Z 14013G20KT 34/17 A3008 RMK A01 T03390174  RH  039%=      5-min Rain = 0
KTUR 272220Z 14016G25KT 34/17 A3008 RMK A01 T03390174  RH  039%=      5-min Rain = 0
KTUR 272225Z 14014G20KT 34/18 A3008 RMK A01 T03370175  RH  039%=      5-min Rain = 0
KTUR 272230Z 14016KT 34/17 A3007 RMK A01 T03350171  RH  039%=      5-min Rain = 0
KTUR 272235Z 14014G19KT 34/17 A3007 RMK A01 T03370171  RH  038%=      5-min Rain = 0
KTUR 272240Z 14015KT 34/17 A3007 RMK A01 T03370167  RH  037%=      5-min Rain = 0
KTUR 272245Z 15015KT 34/17 A3007 RMK A01 T03360169  RH  038%=      5-min Rain = 0
KTUR 272250Z 14014G21KT 34/17 A3006 RMK A01 T03390170  RH  037%=      5-min Rain = 0
KTUR 272255Z 15016G23KT 34/17 A3007 RMK A01 T03370167  RH  037%=      5-min Rain = 0
KTUR 272300Z 14014G19KT 33/17 A3007 RMK A01 T03330169  RH  038%=      5-min Rain = 0
KTUR 272305Z 14013G18KT 33/17 A3007 RMK A01 T03320167  RH  038%=      5-min Rain = 0
KTUR 272310Z 15013KT 33/17 A3007 RMK A01 T03320165  RH  038%=      5-min Rain = 0
KTUR 272315Z 14015KT 33/16 A3006 RMK A01 T03340164  RH  037%=      5-min Rain = 0
KTUR 272320Z 15015G20KT 33/16 A3006 RMK A01 T03340164  RH  037%=      5-min Rain = 0
KTUR 272325Z 14014G19KT 33/16 A3006 RMK A01 T03330164  RH  037%=      5-min Rain = 0
KTUR 272330Z 14014KT 33/16 A3007 RMK A01 T03330164  RH  037%=      5-min Rain = 0
KTUR 272335Z 15013KT 33/17 A3007 RMK A01 T03330165  RH  038%=      5-min Rain = 0
KTUR 272340Z 15011KT 33/17 A3006 RMK A01 T03300165  RH  038%=      5-min Rain = 0
KTUR 272345Z 14015KT 33/17 A3006 RMK A01 T03300165  RH  038%=      5-min Rain = 0
KTUR 272350Z 14014G20KT 33/17 A3006 RMK A01 T03290165  RH  038%=      5-min Rain = 0
KTUR 272355Z 15014KT 33/16 A3006 RMK A01 T03260163  RH  038%=      5-min Rain = 0
KTUR 280000Z 14014KT 33/16 A3006 RMK A01 T03250161  RH  038%=      5-min Rain = 0
KTUR 280005Z 15014KT 32/16 A3006 RMK A01 T03230161  RH  039%=      5-min Rain = 0
KTUR 280010Z 14012G17KT 32/16 A3007 RMK A01 T03230160  RH  038%=      5-min Rain = 0
KTUR 280015Z 15013KT 32/16 A3007 RMK A01 T03230161  RH  039%=      5-min Rain = 0
KTUR 280020Z 14012KT 32/16 A3007 RMK A01 T03230162  RH  039%=      5-min Rain = 0
KTUR 280025Z 14012KT 32/17 A3007 RMK A01 T03220165  RH  040%=      5-min Rain = 0
KTUR 280030Z 14014KT 32/17 A3006 RMK A01 T03210167  RH  041%=      5-min Rain = 0
KTUR 280035Z 13014KT 32/17 A3006 RMK A01 T03200165  RH  040%=      5-min Rain = 0
KTUR 280040Z 14013KT 32/17 A3006 RMK A01 T03190165  RH  041%=      5-min Rain = 0
KTUR 280045Z 14013KT 32/17 A3006 RMK A01 T03190165  RH  041%=      5-min Rain = 0
KTUR 280050Z 14012KT 32/17 A3006 RMK A01 T03180165  RH  041%=      5-min Rain = 0
KTUR 280055Z 14012KT 32/17 A3007 RMK A01 T03170166  RH  041%=      5-min Rain = 0
KTUR 280100Z 14012KT 32/17 A3007 RMK A01 T03160165  RH  041%=      5-min Rain = 0
KTUR 280105Z 14011KT 32/17 A3007 RMK A01 T03150165  RH  042%=      5-min Rain = 0
KTUR 280110Z 14012KT 31/16 A3007 RMK A01 T03140164  RH  042%=      5-min Rain = 0
KTUR 280115Z 14012KT 31/16 A3007 RMK A01 T03130163  RH  042%=      5-min Rain = 0
KTUR 280120Z 14011KT 31/16 A3007 RMK A01 T03120163  RH  042%=      5-min Rain = 0
KTUR 280125Z 14011KT 31/16 A3007 RMK A01 T03110163  RH  042%=      5-min Rain = 0
KTUR 280130Z 14011KT 31/16 A3008 RMK A01 T03100164  RH  042%=      5-min Rain = 0
KTUR 280135Z 14009KT 31/17 A3008 RMK A01 T03080165  RH  043%=      5-min Rain = 0
KTUR 280140Z 14009KT 31/17 A3008 RMK A01 T03060166  RH  044%=      5-min Rain = 0
KTUR 280145Z 14008KT 30/17 A3009 RMK A01 T03040167  RH  045%=      5-min Rain = 0
KTUR 280150Z 13009KT 30/17 A3009 RMK A01 T03020168  RH  045%=      5-min Rain = 0
KTUR 280155Z 13009KT 30/17 A3009 RMK A01 T03010168  RH  046%=      5-min Rain = 0
KTUR 280200Z 13008KT 30/17 A3009 RMK A01 T02990169  RH  047%=      5-min Rain = 0
KTUR 280205Z 13008KT 30/17 A3009 RMK A01 T02960170  RH  048%=      5-min Rain = 0
KTUR 280210Z 13008KT 29/17 A3009 RMK A01 T02930170  RH  049%=      5-min Rain = 0
KTUR 280215Z 13008KT 29/17 A3009 RMK A01 T02910171  RH  050%=      5-min Rain = 0
KTUR 280220Z 13009KT 29/17 A3009 RMK A01 T02900171  RH  050%=      5-min Rain = 0
KTUR 280225Z 13008KT 29/17 A3009 RMK A01 T02880171  RH  050%=      5-min Rain = 0
KTUR 280230Z 13008KT 29/17 A3009 RMK A01 T02850172  RH  052%=      5-min Rain = 0
KTUR 280235Z 12008KT 29/17 A301 RMK A01 T02850173  RH  052%=      5-min Rain = 0
KTUR 280240Z 12008KT 28/17 A301 RMK A01 T02820172  RH  052%=      5-min Rain = 0
KTUR 280245Z 12008KT 28/17 A301 RMK A01 T02810172  RH  053%=      5-min Rain = 0
KTUR 280250Z 12009KT 28/17 A301 RMK A01 T02790172  RH  054%=      5-min Rain = 0
KTUR 280255Z 12009KT 28/17 A301 RMK A01 T02780173  RH  054%=      5-min Rain = 0
KTUR 280300Z 12009KT 28/17 A3011 RMK A01 T02760173  RH  055%=      5-min Rain = 0
KTUR 280305Z 12009KT 28/18 A3011 RMK A01 T02750175  RH  056%=      5-min Rain = 0
KTUR 280310Z 12009KT 27/18 A3011 RMK A01 T02740176  RH  056%=      5-min Rain = 0
KTUR 280315Z 12010KT 27/18 A3011 RMK A01 T02730176  RH  057%=      5-min Rain = 0
KTUR 280320Z 12009KT 27/18 A3012 RMK A01 T02720177  RH  057%=      5-min Rain = 0
KTUR 280325Z 13009KT 27/18 A3012 RMK A01 T02710177  RH  058%=      5-min Rain = 0
KTUR 280330Z 13009KT 27/18 A3013 RMK A01 T02700177  RH  058%=      5-min Rain = 0
KTUR 280335Z 13008KT 27/18 A3013 RMK A01 T02700177  RH  058%=      5-min Rain = 0
KTUR 280340Z 14008KT 27/18 A3014 RMK A01 T02700178  RH  058%=      5-min Rain = 0
KTUR 280345Z 14007KT 27/18 A3014 RMK A01 T02700177  RH  058%=      5-min Rain = 0
KTUR 280350Z 15006KT 27/18 A3015 RMK A01 T02700177  RH  058%=      5-min Rain = 0
KTUR 280355Z 16006KT 27/18 A3016 RMK A01 T02690177  RH  059%=      5-min Rain = 0
KTUR 280400Z 17006KT 27/18 A3016 RMK A01 T02690177  RH  059%=      5-min Rain = 0
KTUR 280405Z 17006KT 27/18 A3017 RMK A01 T02680178  RH  059%=      5-min Rain = 0
KTUR 280410Z 18006KT 27/18 A3017 RMK A01 T02650178  RH  060%=      5-min Rain = 0
KTUR 280415Z 19007KT 26/18 A3017 RMK A01 T02630178  RH  061%=      5-min Rain = 0
KTUR 280420Z 19007KT 26/18 A3017 RMK A01 T02600177  RH  062%=      5-min Rain = 0
KTUR 280425Z 19007KT 26/18 A3017 RMK A01 T02590177  RH  062%=      5-min Rain = 0
KTUR 280430Z 18007KT 26/18 A3017 RMK A01 T02580176  RH  062%=      5-min Rain = 0
KTUR 280435Z 17006KT 26/18 A3017 RMK A01 T02580177  RH  062%=      5-min Rain = 0
KTUR 280440Z 16006KT 26/18 A3017 RMK A01 T02570176  RH  062%=      5-min Rain = 0
KTUR 280445Z 16006KT 26/18 A3017 RMK A01 T02580176  RH  062%=      5-min Rain = 0
KTUR 280450Z 16006KT 26/18 A3017 RMK A01 T02580176  RH  062%=      5-min Rain = 0
KTUR 280455Z 16006KT 26/18 A3017 RMK A01 T02570176  RH  062%=      5-min Rain = 0

Page generated in 0.0283 seconds.